sensor_id;sensor_type;location;lat;lon;timestamp;P1;durP1;ratioP1;P2;durP2;ratioP2
27408;SDS011;20413;50.782;7.152;2022-07-29T00:00:08;2.25;;;1.30;;
27408;SDS011;20413;50.782;7.152;2022-07-29T00:02:35;2.50;;;1.45;;
27408;SDS011;20413;50.782;7.152;2022-07-29T00:05:01;1.85;;;1.20;;
27408;SDS011;20413;50.782;7.152;2022-07-29T00:07:27;2.40;;;0.95;;
27408;SDS011;20413;50.782;7.152;2022-07-29T00:09:53;4.10;;;1.27;;
27408;SDS011;20413;50.782;7.152;2022-07-29T00:12:20;3.38;;;1.38;;
27408;SDS011;20413;50.782;7.152;2022-07-29T00:14:46;2.63;;;1.20;;
27408;SDS011;20413;50.782;7.152;2022-07-29T00:17:12;3.38;;;1.40;;
27408;SDS011;20413;50.782;7.152;2022-07-29T00:19:39;1.80;;;1.13;;
27408;SDS011;20413;50.782;7.152;2022-07-29T00:22:05;2.25;;;1.33;;
27408;SDS011;20413;50.782;7.152;2022-07-29T00:24:31;1.42;;;1.17;;
27408;SDS011;20413;50.782;7.152;2022-07-29T00:26:57;3.20;;;1.38;;
27408;SDS011;20413;50.782;7.152;2022-07-29T00:29:23;6.10;;;1.42;;
27408;SDS011;20413;50.782;7.152;2022-07-29T00:31:49;4.68;;;1.58;;
27408;SDS011;20413;50.782;7.152;2022-07-29T00:34:15;1.67;;;1.15;;
27408;SDS011;20413;50.782;7.152;2022-07-29T00:36:59;3.60;;;1.20;;
27408;SDS011;20413;50.782;7.152;2022-07-29T00:39:25;3.53;;;1.20;;
27408;SDS011;20413;50.782;7.152;2022-07-29T00:41:52;3.75;;;1.30;;
27408;SDS011;20413;50.782;7.152;2022-07-29T00:44:18;3.33;;;1.00;;
27408;SDS011;20413;50.782;7.152;2022-07-29T00:46:44;2.92;;;1.10;;
27408;SDS011;20413;50.782;7.152;2022-07-29T00:49:10;5.82;;;1.35;;
27408;SDS011;20413;50.782;7.152;2022-07-29T00:51:36;1.05;;;0.93;;
27408;SDS011;20413;50.782;7.152;2022-07-29T00:54:04;3.20;;;1.40;;
27408;SDS011;20413;50.782;7.152;2022-07-29T00:56:30;1.92;;;1.40;;
27408;SDS011;20413;50.782;7.152;2022-07-29T00:58:57;4.18;;;1.40;;
27408;SDS011;20413;50.782;7.152;2022-07-29T01:01:23;2.95;;;1.38;;
27408;SDS011;20413;50.782;7.152;2022-07-29T01:03:49;1.58;;;1.48;;
27408;SDS011;20413;50.782;7.152;2022-07-29T01:06:16;5.78;;;1.60;;
27408;SDS011;20413;50.782;7.152;2022-07-29T01:08:43;3.70;;;1.17;;
27408;SDS011;20413;50.782;7.152;2022-07-29T01:11:09;1.60;;;1.20;;
27408;SDS011;20413;50.782;7.152;2022-07-29T01:13:35;2.28;;;1.20;;
27408;SDS011;20413;50.782;7.152;2022-07-29T01:18:47;2.67;;;1.13;;
27408;SDS011;20413;50.782;7.152;2022-07-29T01:21:35;4.20;;;1.10;;
27408;SDS011;20413;50.782;7.152;2022-07-29T01:31:52;5.63;;;1.35;;
27408;SDS011;20413;50.782;7.152;2022-07-29T01:37:13;3.13;;;1.23;;
27408;SDS011;20413;50.782;7.152;2022-07-29T01:39:41;3.45;;;1.35;;
27408;SDS011;20413;50.782;7.152;2022-07-29T01:44:41;2.42;;;1.30;;
27408;SDS011;20413;50.782;7.152;2022-07-29T01:47:10;1.90;;;1.20;;
27408;SDS011;20413;50.782;7.152;2022-07-29T01:49:39;3.67;;;1.27;;
27408;SDS011;20413;50.782;7.152;2022-07-29T01:52:11;1.70;;;1.17;;
27408;SDS011;20413;50.782;7.152;2022-07-29T01:54:43;1.92;;;1.10;;
27408;SDS011;20413;50.782;7.152;2022-07-29T01:57:11;3.80;;;1.50;;
27408;SDS011;20413;50.782;7.152;2022-07-29T01:59:39;2.08;;;1.50;;
27408;SDS011;20413;50.782;7.152;2022-07-29T02:02:06;3.22;;;1.60;;
27408;SDS011;20413;50.782;7.152;2022-07-29T02:04:34;2.13;;;1.30;;
27408;SDS011;20413;50.782;7.152;2022-07-29T02:07:02;5.93;;;1.20;;
27408;SDS011;20413;50.782;7.152;2022-07-29T02:09:29;2.45;;;1.50;;
27408;SDS011;20413;50.782;7.152;2022-07-29T02:11:56;1.27;;;1.17;;
27408;SDS011;20413;50.782;7.152;2022-07-29T02:14:23;1.80;;;1.50;;
27408;SDS011;20413;50.782;7.152;2022-07-29T02:16:51;2.85;;;1.27;;
27408;SDS011;20413;50.782;7.152;2022-07-29T02:19:19;6.95;;;1.73;;
27408;SDS011;20413;50.782;7.152;2022-07-29T02:21:47;3.70;;;1.40;;
27408;SDS011;20413;50.782;7.152;2022-07-29T02:24:13;2.88;;;1.30;;
27408;SDS011;20413;50.782;7.152;2022-07-29T02:26:41;2.13;;;1.55;;
27408;SDS011;20413;50.782;7.152;2022-07-29T02:29:07;3.10;;;1.48;;
27408;SDS011;20413;50.782;7.152;2022-07-29T02:31:34;1.50;;;1.38;;
27408;SDS011;20413;50.782;7.152;2022-07-29T02:34:02;4.50;;;1.40;;
27408;SDS011;20413;50.782;7.152;2022-07-29T02:36:29;1.90;;;1.80;;
27408;SDS011;20413;50.782;7.152;2022-07-29T02:38:55;6.03;;;2.00;;
27408;SDS011;20413;50.782;7.152;2022-07-29T02:41:47;3.55;;;2.05;;
27408;SDS011;20413;50.782;7.152;2022-07-29T02:44:12;6.30;;;2.20;;
27408;SDS011;20413;50.782;7.152;2022-07-29T02:46:41;3.40;;;1.98;;
27408;SDS011;20413;50.782;7.152;2022-07-29T02:49:10;3.10;;;1.75;;
27408;SDS011;20413;50.782;7.152;2022-07-29T02:51:43;3.70;;;1.70;;
27408;SDS011;20413;50.782;7.152;2022-07-29T02:54:09;4.03;;;1.75;;
27408;SDS011;20413;50.782;7.152;2022-07-29T02:56:35;3.20;;;1.70;;
27408;SDS011;20413;50.782;7.152;2022-07-29T02:59:04;6.15;;;1.80;;
27408;SDS011;20413;50.782;7.152;2022-07-29T03:01:32;7.25;;;2.08;;
27408;SDS011;20413;50.782;7.152;2022-07-29T03:04:00;3.00;;;1.52;;
27408;SDS011;20413;50.782;7.152;2022-07-29T03:06:27;5.78;;;2.35;;
27408;SDS011;20413;50.782;7.152;2022-07-29T03:08:54;3.35;;;1.60;;
27408;SDS011;20413;50.782;7.152;2022-07-29T03:11:21;6.18;;;1.90;;
27408;SDS011;20413;50.782;7.152;2022-07-29T03:13:47;7.25;;;1.83;;
27408;SDS011;20413;50.782;7.152;2022-07-29T03:16:14;4.03;;;1.90;;
27408;SDS011;20413;50.782;7.152;2022-07-29T03:18:40;2.85;;;1.88;;
27408;SDS011;20413;50.782;7.152;2022-07-29T03:21:06;2.90;;;1.80;;
27408;SDS011;20413;50.782;7.152;2022-07-29T03:23:33;2.63;;;1.15;;
27408;SDS011;20413;50.782;7.152;2022-07-29T03:25:59;2.75;;;1.80;;
27408;SDS011;20413;50.782;7.152;2022-07-29T03:28:25;2.72;;;1.63;;
27408;SDS011;20413;50.782;7.152;2022-07-29T03:30:52;1.95;;;1.50;;
27408;SDS011;20413;50.782;7.152;2022-07-29T03:33:18;5.13;;;2.58;;
27408;SDS011;20413;50.782;7.152;2022-07-29T03:35:44;4.68;;;2.17;;
27408;SDS011;20413;50.782;7.152;2022-07-29T03:38:11;3.90;;;1.83;;
27408;SDS011;20413;50.782;7.152;2022-07-29T03:40:48;3.58;;;2.20;;
27408;SDS011;20413;50.782;7.152;2022-07-29T03:45:42;9.32;;;2.75;;
27408;SDS011;20413;50.782;7.152;2022-07-29T03:48:10;2.75;;;1.60;;
27408;SDS011;20413;50.782;7.152;2022-07-29T03:50:37;4.15;;;1.90;;
27408;SDS011;20413;50.782;7.152;2022-07-29T03:53:04;2.65;;;1.60;;
27408;SDS011;20413;50.782;7.152;2022-07-29T03:55:32;2.92;;;1.73;;
27408;SDS011;20413;50.782;7.152;2022-07-29T03:57:59;4.55;;;2.28;;
27408;SDS011;20413;50.782;7.152;2022-07-29T04:00:26;3.83;;;1.75;;
27408;SDS011;20413;50.782;7.152;2022-07-29T04:02:53;3.92;;;1.92;;
27408;SDS011;20413;50.782;7.152;2022-07-29T04:05:19;4.28;;;1.73;;
27408;SDS011;20413;50.782;7.152;2022-07-29T04:07:45;4.50;;;1.38;;
27408;SDS011;20413;50.782;7.152;2022-07-29T04:10:11;3.85;;;1.70;;
27408;SDS011;20413;50.782;7.152;2022-07-29T04:12:37;2.75;;;1.63;;
27408;SDS011;20413;50.782;7.152;2022-07-29T04:15:04;2.25;;;1.98;;
27408;SDS011;20413;50.782;7.152;2022-07-29T04:17:30;2.05;;;1.58;;
27408;SDS011;20413;50.782;7.152;2022-07-29T04:19:56;6.43;;;2.08;;
27408;SDS011;20413;50.782;7.152;2022-07-29T04:22:22;1.88;;;1.75;;
27408;SDS011;20413;50.782;7.152;2022-07-29T04:24:48;4.03;;;1.88;;
27408;SDS011;20413;50.782;7.152;2022-07-29T04:27:14;3.42;;;1.80;;
27408;SDS011;20413;50.782;7.152;2022-07-29T04:29:40;5.43;;;1.73;;
27408;SDS011;20413;50.782;7.152;2022-07-29T04:32:06;4.82;;;1.75;;
27408;SDS011;20413;50.782;7.152;2022-07-29T04:34:32;3.72;;;2.22;;
27408;SDS011;20413;50.782;7.152;2022-07-29T04:36:58;3.55;;;2.28;;
27408;SDS011;20413;50.782;7.152;2022-07-29T04:39:24;3.97;;;2.13;;
27408;SDS011;20413;50.782;7.152;2022-07-29T04:41:50;5.75;;;2.05;;
27408;SDS011;20413;50.782;7.152;2022-07-29T04:44:16;2.58;;;1.73;;
27408;SDS011;20413;50.782;7.152;2022-07-29T04:46:43;4.00;;;2.25;;
27408;SDS011;20413;50.782;7.152;2022-07-29T04:49:09;6.85;;;1.60;;
27408;SDS011;20413;50.782;7.152;2022-07-29T04:51:35;4.95;;;2.65;;
27408;SDS011;20413;50.782;7.152;2022-07-29T04:54:01;6.15;;;1.88;;
27408;SDS011;20413;50.782;7.152;2022-07-29T04:56:27;3.20;;;2.00;;
27408;SDS011;20413;50.782;7.152;2022-07-29T04:58:53;2.63;;;1.63;;
27408;SDS011;20413;50.782;7.152;2022-07-29T05:01:19;4.55;;;2.28;;
27408;SDS011;20413;50.782;7.152;2022-07-29T05:03:45;5.05;;;1.90;;
27408;SDS011;20413;50.782;7.152;2022-07-29T05:06:11;3.25;;;2.13;;
27408;SDS011;20413;50.782;7.152;2022-07-29T05:08:37;10.90;;;2.30;;
27408;SDS011;20413;50.782;7.152;2022-07-29T05:11:04;8.70;;;2.40;;
27408;SDS011;20413;50.782;7.152;2022-07-29T05:13:30;6.32;;;2.45;;
27408;SDS011;20413;50.782;7.152;2022-07-29T05:15:56;9.38;;;2.20;;
27408;SDS011;20413;50.782;7.152;2022-07-29T05:18:23;6.05;;;2.03;;
27408;SDS011;20413;50.782;7.152;2022-07-29T05:20:49;3.10;;;1.70;;
27408;SDS011;20413;50.782;7.152;2022-07-29T05:23:15;3.40;;;1.60;;
27408;SDS011;20413;50.782;7.152;2022-07-29T05:25:41;4.25;;;1.55;;
27408;SDS011;20413;50.782;7.152;2022-07-29T05:28:07;5.70;;;1.70;;
27408;SDS011;20413;50.782;7.152;2022-07-29T05:30:34;3.65;;;1.65;;
27408;SDS011;20413;50.782;7.152;2022-07-29T05:33:00;6.28;;;1.60;;
27408;SDS011;20413;50.782;7.152;2022-07-29T05:35:26;3.65;;;1.35;;
27408;SDS011;20413;50.782;7.152;2022-07-29T05:37:52;3.42;;;1.40;;
27408;SDS011;20413;50.782;7.152;2022-07-29T05:40:18;2.38;;;1.30;;
27408;SDS011;20413;50.782;7.152;2022-07-29T05:42:45;5.80;;;1.30;;
27408;SDS011;20413;50.782;7.152;2022-07-29T05:45:11;3.80;;;1.60;;
27408;SDS011;20413;50.782;7.152;2022-07-29T05:47:37;7.68;;;1.60;;
27408;SDS011;20413;50.782;7.152;2022-07-29T05:50:03;7.40;;;1.77;;
27408;SDS011;20413;50.782;7.152;2022-07-29T05:52:29;6.72;;;1.70;;
27408;SDS011;20413;50.782;7.152;2022-07-29T05:54:55;5.68;;;1.35;;
27408;SDS011;20413;50.782;7.152;2022-07-29T05:57:22;5.38;;;1.40;;
27408;SDS011;20413;50.782;7.152;2022-07-29T05:59:49;6.03;;;2.08;;
27408;SDS011;20413;50.782;7.152;2022-07-29T06:02:15;5.38;;;1.33;;
27408;SDS011;20413;50.782;7.152;2022-07-29T06:04:41;3.08;;;1.48;;
27408;SDS011;20413;50.782;7.152;2022-07-29T06:07:09;3.10;;;1.40;;
27408;SDS011;20413;50.782;7.152;2022-07-29T06:09:36;3.95;;;1.67;;
27408;SDS011;20413;50.782;7.152;2022-07-29T06:12:02;7.68;;;2.00;;
27408;SDS011;20413;50.782;7.152;2022-07-29T06:14:28;5.18;;;1.85;;
27408;SDS011;20413;50.782;7.152;2022-07-29T06:16:55;3.78;;;1.40;;
27408;SDS011;20413;50.782;7.152;2022-07-29T06:19:21;3.38;;;1.10;;
27408;SDS011;20413;50.782;7.152;2022-07-29T06:21:47;5.82;;;1.67;;
27408;SDS011;20413;50.782;7.152;2022-07-29T06:24:14;5.05;;;1.35;;
27408;SDS011;20413;50.782;7.152;2022-07-29T06:26:41;7.13;;;1.40;;
27408;SDS011;20413;50.782;7.152;2022-07-29T06:29:07;5.20;;;1.45;;
27408;SDS011;20413;50.782;7.152;2022-07-29T06:31:35;3.55;;;1.30;;
27408;SDS011;20413;50.782;7.152;2022-07-29T06:34:02;4.60;;;1.30;;
27408;SDS011;20413;50.782;7.152;2022-07-29T06:36:28;7.00;;;1.35;;
27408;SDS011;20413;50.782;7.152;2022-07-29T06:38:54;4.03;;;1.15;;
27408;SDS011;20413;50.782;7.152;2022-07-29T06:41:20;8.25;;;1.33;;
27408;SDS011;20413;50.782;7.152;2022-07-29T06:43:47;4.13;;;1.42;;
27408;SDS011;20413;50.782;7.152;2022-07-29T06:46:16;5.82;;;1.17;;
27408;SDS011;20413;50.782;7.152;2022-07-29T06:48:42;7.50;;;1.70;;
27408;SDS011;20413;50.782;7.152;2022-07-29T06:51:09;2.90;;;1.15;;
27408;SDS011;20413;50.782;7.152;2022-07-29T06:53:36;6.15;;;1.65;;
27408;SDS011;20413;50.782;7.152;2022-07-29T06:56:03;10.77;;;2.00;;
27408;SDS011;20413;50.782;7.152;2022-07-29T06:58:29;2.75;;;1.30;;
27408;SDS011;20413;50.782;7.152;2022-07-29T07:00:56;4.57;;;1.33;;
27408;SDS011;20413;50.782;7.152;2022-07-29T07:03:22;5.80;;;1.35;;
27408;SDS011;20413;50.782;7.152;2022-07-29T07:05:49;2.38;;;1.25;;
27408;SDS011;20413;50.782;7.152;2022-07-29T07:08:15;3.55;;;1.45;;
27408;SDS011;20413;50.782;7.152;2022-07-29T07:10:41;3.75;;;1.42;;
27408;SDS011;20413;50.782;7.152;2022-07-29T07:13:07;7.93;;;1.52;;
27408;SDS011;20413;50.782;7.152;2022-07-29T07:15:33;4.47;;;1.30;;
27408;SDS011;20413;50.782;7.152;2022-07-29T07:18:01;1.40;;;0.85;;
27408;SDS011;20413;50.782;7.152;2022-07-29T07:20:27;4.68;;;1.40;;
27408;SDS011;20413;50.782;7.152;2022-07-29T07:22:53;4.20;;;1.33;;
27408;SDS011;20413;50.782;7.152;2022-07-29T07:25:19;7.68;;;1.10;;
27408;SDS011;20413;50.782;7.152;2022-07-29T07:27:45;4.03;;;1.45;;
27408;SDS011;20413;50.782;7.152;2022-07-29T07:30:11;3.78;;;1.40;;
27408;SDS011;20413;50.782;7.152;2022-07-29T07:32:38;4.22;;;1.17;;
27408;SDS011;20413;50.782;7.152;2022-07-29T07:35:05;3.22;;;1.08;;
27408;SDS011;20413;50.782;7.152;2022-07-29T07:37:31;9.63;;;1.80;;
27408;SDS011;20413;50.782;7.152;2022-07-29T07:39:58;3.17;;;1.40;;
27408;SDS011;20413;50.782;7.152;2022-07-29T07:42:24;3.05;;;1.30;;
27408;SDS011;20413;50.782;7.152;2022-07-29T07:44:50;5.93;;;1.55;;
27408;SDS011;20413;50.782;7.152;2022-07-29T07:47:16;4.20;;;1.00;;
27408;SDS011;20413;50.782;7.152;2022-07-29T07:49:47;5.93;;;1.38;;
27408;SDS011;20413;50.782;7.152;2022-07-29T07:52:14;1.75;;;1.00;;
27408;SDS011;20413;50.782;7.152;2022-07-29T07:54:40;3.75;;;1.20;;
27408;SDS011;20413;50.782;7.152;2022-07-29T07:57:07;4.40;;;1.30;;
27408;SDS011;20413;50.782;7.152;2022-07-29T07:59:34;9.00;;;1.67;;
27408;SDS011;20413;50.782;7.152;2022-07-29T08:02:00;5.82;;;1.60;;
27408;SDS011;20413;50.782;7.152;2022-07-29T08:04:26;7.40;;;1.48;;
27408;SDS011;20413;50.782;7.152;2022-07-29T08:06:52;5.38;;;1.40;;
27408;SDS011;20413;50.782;7.152;2022-07-29T08:09:21;5.95;;;1.70;;
27408;SDS011;20413;50.782;7.152;2022-07-29T08:11:47;5.43;;;1.48;;
27408;SDS011;20413;50.782;7.152;2022-07-29T08:14:14;2.75;;;1.30;;
27408;SDS011;20413;50.782;7.152;2022-07-29T08:16:40;3.65;;;1.00;;
27408;SDS011;20413;50.782;7.152;2022-07-29T08:19:07;2.00;;;1.03;;
27408;SDS011;20413;50.782;7.152;2022-07-29T08:21:33;2.40;;;1.05;;
27408;SDS011;20413;50.782;7.152;2022-07-29T08:23:59;2.08;;;1.13;;
27408;SDS011;20413;50.782;7.152;2022-07-29T08:26:44;2.78;;;1.00;;
27408;SDS011;20413;50.782;7.152;2022-07-29T08:29:10;2.35;;;1.17;;
27408;SDS011;20413;50.782;7.152;2022-07-29T08:31:36;3.28;;;1.10;;
27408;SDS011;20413;50.782;7.152;2022-07-29T08:34:03;8.32;;;1.48;;
27408;SDS011;20413;50.782;7.152;2022-07-29T08:36:30;5.18;;;1.45;;
27408;SDS011;20413;50.782;7.152;2022-07-29T08:38:56;5.13;;;1.10;;
27408;SDS011;20413;50.782;7.152;2022-07-29T08:41:22;3.88;;;0.95;;
27408;SDS011;20413;50.782;7.152;2022-07-29T08:43:49;3.78;;;1.10;;
27408;SDS011;20413;50.782;7.152;2022-07-29T08:46:16;3.00;;;1.13;;
27408;SDS011;20413;50.782;7.152;2022-07-29T08:48:42;2.80;;;1.10;;
27408;SDS011;20413;50.782;7.152;2022-07-29T08:51:08;3.40;;;0.88;;
27408;SDS011;20413;50.782;7.152;2022-07-29T08:53:39;4.22;;;1.67;;
27408;SDS011;20413;50.782;7.152;2022-07-29T08:56:06;4.20;;;1.10;;
27408;SDS011;20413;50.782;7.152;2022-07-29T08:58:33;9.38;;;1.80;;
27408;SDS011;20413;50.782;7.152;2022-07-29T09:01:00;4.88;;;1.17;;
27408;SDS011;20413;50.782;7.152;2022-07-29T09:03:29;6.18;;;1.20;;
27408;SDS011;20413;50.782;7.152;2022-07-29T09:05:56;7.68;;;1.30;;
27408;SDS011;20413;50.782;7.152;2022-07-29T09:08:22;2.85;;;1.05;;
27408;SDS011;20413;50.782;7.152;2022-07-29T09:10:48;6.15;;;1.08;;
27408;SDS011;20413;50.782;7.152;2022-07-29T09:13:15;5.18;;;1.05;;
27408;SDS011;20413;50.782;7.152;2022-07-29T09:15:41;3.15;;;1.00;;
27408;SDS011;20413;50.782;7.152;2022-07-29T09:18:07;1.85;;;1.38;;
27408;SDS011;20413;50.782;7.152;2022-07-29T09:20:33;2.72;;;0.88;;
27408;SDS011;20413;50.782;7.152;2022-07-29T09:23:18;2.83;;;1.17;;
27408;SDS011;20413;50.782;7.152;2022-07-29T09:25:44;2.53;;;1.08;;
27408;SDS011;20413;50.782;7.152;2022-07-29T09:28:11;4.45;;;1.10;;
27408;SDS011;20413;50.782;7.152;2022-07-29T09:30:53;3.88;;;1.15;;
27408;SDS011;20413;50.782;7.152;2022-07-29T09:33:20;3.90;;;1.08;;
27408;SDS011;20413;50.782;7.152;2022-07-29T09:35:57;4.43;;;1.13;;
27408;SDS011;20413;50.782;7.152;2022-07-29T09:38:24;10.82;;;1.10;;
27408;SDS011;20413;50.782;7.152;2022-07-29T09:41:00;4.22;;;1.10;;
27408;SDS011;20413;50.782;7.152;2022-07-29T09:43:26;3.50;;;1.00;;
27408;SDS011;20413;50.782;7.152;2022-07-29T09:45:52;3.78;;;1.50;;
27408;SDS011;20413;50.782;7.152;2022-07-29T09:48:22;5.70;;;1.38;;
27408;SDS011;20413;50.782;7.152;2022-07-29T09:50:49;3.95;;;1.50;;
27408;SDS011;20413;50.782;7.152;2022-07-29T09:55:57;4.93;;;1.52;;
27408;SDS011;20413;50.782;7.152;2022-07-29T09:58:23;7.93;;;1.70;;
27408;SDS011;20413;50.782;7.152;2022-07-29T10:00:50;5.60;;;1.60;;
27408;SDS011;20413;50.782;7.152;2022-07-29T10:03:16;6.75;;;1.48;;
27408;SDS011;20413;50.782;7.152;2022-07-29T10:05:43;3.30;;;1.33;;
27408;SDS011;20413;50.782;7.152;2022-07-29T10:08:10;5.78;;;1.95;;
27408;SDS011;20413;50.782;7.152;2022-07-29T10:10:41;7.68;;;2.20;;
27408;SDS011;20413;50.782;7.152;2022-07-29T10:13:11;5.50;;;1.75;;
27408;SDS011;20413;50.782;7.152;2022-07-29T10:15:39;4.88;;;1.70;;
27408;SDS011;20413;50.782;7.152;2022-07-29T10:18:10;3.85;;;1.58;;
27408;SDS011;20413;50.782;7.152;2022-07-29T10:20:36;3.57;;;1.67;;
27408;SDS011;20413;50.782;7.152;2022-07-29T10:23:03;7.28;;;2.30;;
27408;SDS011;20413;50.782;7.152;2022-07-29T10:25:29;7.65;;;1.80;;
27408;SDS011;20413;50.782;7.152;2022-07-29T10:27:55;10.40;;;2.13;;
27408;SDS011;20413;50.782;7.152;2022-07-29T10:30:22;5.85;;;1.60;;
27408;SDS011;20413;50.782;7.152;2022-07-29T10:35:44;5.43;;;1.92;;
27408;SDS011;20413;50.782;7.152;2022-07-29T10:41:02;10.77;;;1.88;;
27408;SDS011;20413;50.782;7.152;2022-07-29T10:43:51;5.35;;;1.58;;
27408;SDS011;20413;50.782;7.152;2022-07-29T10:46:17;6.60;;;2.13;;
27408;SDS011;20413;50.782;7.152;2022-07-29T10:51:50;5.75;;;2.17;;
27408;SDS011;20413;50.782;7.152;2022-07-29T10:54:14;5.45;;;2.33;;
27408;SDS011;20413;50.782;7.152;2022-07-29T10:56:40;3.83;;;1.88;;
27408;SDS011;20413;50.782;7.152;2022-07-29T11:01:45;7.22;;;2.03;;
27408;SDS011;20413;50.782;7.152;2022-07-29T11:04:11;5.13;;;1.95;;
27408;SDS011;20413;50.782;7.152;2022-07-29T11:09:22;6.05;;;1.98;;
27408;SDS011;20413;50.782;7.152;2022-07-29T11:11:48;7.20;;;2.35;;
27408;SDS011;20413;50.782;7.152;2022-07-29T11:14:14;4.70;;;1.95;;
27408;SDS011;20413;50.782;7.152;2022-07-29T11:17:01;4.57;;;1.52;;
27408;SDS011;20413;50.782;7.152;2022-07-29T11:19:28;4.97;;;2.00;;
27408;SDS011;20413;50.782;7.152;2022-07-29T11:21:54;8.05;;;1.67;;
27408;SDS011;20413;50.782;7.152;2022-07-29T11:24:24;4.70;;;1.45;;
27408;SDS011;20413;50.782;7.152;2022-07-29T11:29:35;7.00;;;1.45;;
27408;SDS011;20413;50.782;7.152;2022-07-29T11:32:08;6.60;;;1.65;;
27408;SDS011;20413;50.782;7.152;2022-07-29T11:34:34;6.32;;;1.50;;
27408;SDS011;20413;50.782;7.152;2022-07-29T11:44:53;1.63;;;0.98;;
27408;SDS011;20413;50.782;7.152;2022-07-29T11:47:21;1.95;;;1.27;;
27408;SDS011;20413;50.782;7.152;2022-07-29T11:49:47;2.30;;;1.02;;
27408;SDS011;20413;50.782;7.152;2022-07-29T11:52:14;3.38;;;1.58;;
27408;SDS011;20413;50.782;7.152;2022-07-29T11:54:41;2.78;;;1.25;;
27408;SDS011;20413;50.782;7.152;2022-07-29T11:57:08;2.30;;;1.10;;
27408;SDS011;20413;50.782;7.152;2022-07-29T11:59:41;4.82;;;1.40;;
27408;SDS011;20413;50.782;7.152;2022-07-29T12:02:07;4.00;;;1.70;;
27408;SDS011;20413;50.782;7.152;2022-07-29T12:04:34;2.33;;;1.17;;
27408;SDS011;20413;50.782;7.152;2022-07-29T12:07:13;8.13;;;1.58;;
27408;SDS011;20413;50.782;7.152;2022-07-29T12:09:39;5.28;;;1.50;;
27408;SDS011;20413;50.782;7.152;2022-07-29T12:12:05;2.72;;;1.23;;
27408;SDS011;20413;50.782;7.152;2022-07-29T12:14:32;6.38;;;1.67;;
27408;SDS011;20413;50.782;7.152;2022-07-29T12:16:59;2.57;;;1.27;;
27408;SDS011;20413;50.782;7.152;2022-07-29T12:19:26;3.47;;;1.58;;
27408;SDS011;20413;50.782;7.152;2022-07-29T12:21:53;3.60;;;1.73;;
27408;SDS011;20413;50.782;7.152;2022-07-29T12:24:24;5.07;;;1.15;;
27408;SDS011;20413;50.782;7.152;2022-07-29T12:29:16;5.50;;;1.30;;
27408;SDS011;20413;50.782;7.152;2022-07-29T12:31:43;4.25;;;1.35;;
27408;SDS011;20413;50.782;7.152;2022-07-29T12:34:11;3.88;;;1.60;;
27408;SDS011;20413;50.782;7.152;2022-07-29T12:36:37;2.85;;;1.27;;
27408;SDS011;20413;50.782;7.152;2022-07-29T12:39:04;1.27;;;1.17;;
27408;SDS011;20413;50.782;7.152;2022-07-29T12:41:30;2.35;;;1.15;;
27408;SDS011;20413;50.782;7.152;2022-07-29T12:43:57;5.47;;;1.35;;
27408;SDS011;20413;50.782;7.152;2022-07-29T12:46:23;4.97;;;1.10;;
27408;SDS011;20413;50.782;7.152;2022-07-29T12:48:50;2.35;;;1.67;;
27408;SDS011;20413;50.782;7.152;2022-07-29T12:51:29;4.85;;;1.10;;
27408;SDS011;20413;50.782;7.152;2022-07-29T12:54:06;3.28;;;1.17;;
27408;SDS011;20413;50.782;7.152;2022-07-29T12:56:33;4.33;;;1.10;;
27408;SDS011;20413;50.782;7.152;2022-07-29T12:58:59;2.90;;;1.50;;
27408;SDS011;20413;50.782;7.152;2022-07-29T13:01:25;5.50;;;1.20;;
27408;SDS011;20413;50.782;7.152;2022-07-29T13:03:56;2.92;;;1.10;;
27408;SDS011;20413;50.782;7.152;2022-07-29T13:09:07;3.90;;;1.13;;
27408;SDS011;20413;50.782;7.152;2022-07-29T13:11:35;4.53;;;1.35;;
27408;SDS011;20413;50.782;7.152;2022-07-29T13:14:02;5.35;;;1.67;;
27408;SDS011;20413;50.782;7.152;2022-07-29T13:16:29;3.78;;;1.10;;
27408;SDS011;20413;50.782;7.152;2022-07-29T13:21:30;1.98;;;1.40;;
27408;SDS011;20413;50.782;7.152;2022-07-29T13:23:56;8.45;;;1.23;;
27408;SDS011;20413;50.782;7.152;2022-07-29T13:26:22;6.05;;;1.38;;
27408;SDS011;20413;50.782;7.152;2022-07-29T13:28:48;4.32;;;1.33;;
27408;SDS011;20413;50.782;7.152;2022-07-29T13:31:14;5.60;;;1.17;;
27408;SDS011;20413;50.782;7.152;2022-07-29T13:33:40;5.90;;;1.60;;
27408;SDS011;20413;50.782;7.152;2022-07-29T13:36:06;2.55;;;1.48;;
27408;SDS011;20413;50.782;7.152;2022-07-29T13:38:32;3.90;;;1.10;;
27408;SDS011;20413;50.782;7.152;2022-07-29T13:40:58;3.13;;;1.33;;
27408;SDS011;20413;50.782;7.152;2022-07-29T13:43:24;5.95;;;1.30;;
27408;SDS011;20413;50.782;7.152;2022-07-29T13:45:50;3.75;;;1.27;;
27408;SDS011;20413;50.782;7.152;2022-07-29T13:48:19;3.65;;;1.30;;
27408;SDS011;20413;50.782;7.152;2022-07-29T13:50:45;4.55;;;1.10;;
27408;SDS011;20413;50.782;7.152;2022-07-29T13:53:12;5.43;;;1.30;;
27408;SDS011;20413;50.782;7.152;2022-07-29T13:55:39;4.15;;;1.48;;
27408;SDS011;20413;50.782;7.152;2022-07-29T13:58:05;6.65;;;1.40;;
27408;SDS011;20413;50.782;7.152;2022-07-29T14:00:31;5.50;;;1.40;;
27408;SDS011;20413;50.782;7.152;2022-07-29T14:02:57;1.58;;;1.10;;
27408;SDS011;20413;50.782;7.152;2022-07-29T14:05:23;3.20;;;1.25;;
27408;SDS011;20413;50.782;7.152;2022-07-29T14:07:49;3.63;;;1.02;;
27408;SDS011;20413;50.782;7.152;2022-07-29T14:10:15;5.07;;;1.48;;
27408;SDS011;20413;50.782;7.152;2022-07-29T14:12:41;2.10;;;1.20;;
27408;SDS011;20413;50.782;7.152;2022-07-29T14:15:07;3.17;;;1.17;;
27408;SDS011;20413;50.782;7.152;2022-07-29T14:17:33;2.75;;;1.15;;
27408;SDS011;20413;50.782;7.152;2022-07-29T14:19:59;2.72;;;1.20;;
27408;SDS011;20413;50.782;7.152;2022-07-29T14:22:25;2.50;;;1.40;;
27408;SDS011;20413;50.782;7.152;2022-07-29T14:24:51;2.35;;;1.33;;
27408;SDS011;20413;50.782;7.152;2022-07-29T14:27:18;1.75;;;1.00;;
27408;SDS011;20413;50.782;7.152;2022-07-29T14:29:44;2.83;;;1.30;;
27408;SDS011;20413;50.782;7.152;2022-07-29T14:32:10;1.75;;;1.08;;
27408;SDS011;20413;50.782;7.152;2022-07-29T14:34:36;2.17;;;1.25;;
27408;SDS011;20413;50.782;7.152;2022-07-29T14:37:03;2.10;;;1.27;;
27408;SDS011;20413;50.782;7.152;2022-07-29T14:39:33;5.30;;;1.00;;
27408;SDS011;20413;50.782;7.152;2022-07-29T14:42:00;3.92;;;1.23;;
27408;SDS011;20413;50.782;7.152;2022-07-29T14:44:26;10.30;;;1.52;;
27408;SDS011;20413;50.782;7.152;2022-07-29T14:46:56;2.53;;;1.30;;
27408;SDS011;20413;50.782;7.152;2022-07-29T14:49:22;2.20;;;1.30;;
27408;SDS011;20413;50.782;7.152;2022-07-29T14:51:48;2.45;;;1.30;;
27408;SDS011;20413;50.782;7.152;2022-07-29T14:54:14;4.72;;;1.80;;
27408;SDS011;20413;50.782;7.152;2022-07-29T14:56:40;4.60;;;1.52;;
27408;SDS011;20413;50.782;7.152;2022-07-29T14:59:06;5.45;;;1.90;;
27408;SDS011;20413;50.782;7.152;2022-07-29T15:01:32;3.63;;;1.65;;
27408;SDS011;20413;50.782;7.152;2022-07-29T15:03:58;3.45;;;1.50;;
27408;SDS011;20413;50.782;7.152;2022-07-29T15:06:25;5.57;;;1.75;;
27408;SDS011;20413;50.782;7.152;2022-07-29T15:08:51;3.75;;;2.22;;
27408;SDS011;20413;50.782;7.152;2022-07-29T15:11:17;2.55;;;1.90;;
27408;SDS011;20413;50.782;7.152;2022-07-29T15:13:43;8.25;;;2.08;;
27408;SDS011;20413;50.782;7.152;2022-07-29T15:16:09;6.18;;;2.10;;
27408;SDS011;20413;50.782;7.152;2022-07-29T15:18:35;5.93;;;1.88;;
27408;SDS011;20413;50.782;7.152;2022-07-29T15:21:03;5.63;;;2.05;;
27408;SDS011;20413;50.782;7.152;2022-07-29T15:23:29;6.82;;;1.50;;
27408;SDS011;20413;50.782;7.152;2022-07-29T15:25:55;4.53;;;1.73;;
27408;SDS011;20413;50.782;7.152;2022-07-29T15:28:21;2.58;;;1.50;;
27408;SDS011;20413;50.782;7.152;2022-07-29T15:30:47;3.13;;;1.40;;
27408;SDS011;20413;50.782;7.152;2022-07-29T15:33:13;7.03;;;1.75;;
27408;SDS011;20413;50.782;7.152;2022-07-29T15:35:39;8.40;;;2.80;;
27408;SDS011;20413;50.782;7.152;2022-07-29T15:38:05;3.35;;;1.58;;
27408;SDS011;20413;50.782;7.152;2022-07-29T15:40:31;5.57;;;1.90;;